Time;durP1;ratioP1;P1;durP2;ratioP2;P2;SDS_P1;SDS_P2;PMS_P1;PMS_P2;Temp;Humidity;BMP_temperature;BMP_pressure;BME280_temperature;BME280_humidity;BME280_pressure;Samples;Min_cycle;Max_cycle;Signal;HPM_P1;HPM_P2
2023/12/14 00:01:30;;;;;;;17.43;13.53;;;;;;;-141.84;100.00;119224.81;5010055;28;20234;-66
2023/12/14 00:04:02;;;;;;;20.23;15.63;;;;;;;-141.84;100.00;119224.81;5010423;28;20289;-67
2023/12/14 00:06:31;;;;;;;41.67;16.93;;;;;;;-141.84;100.00;119224.81;5010474;28;20297;-65
2023/12/14 00:08:59;;;;;;;21.07;15.83;;;;;;;-141.84;100.00;119224.81;5010679;28;20238;-65
2023/12/14 00:11:28;;;;;;;30.60;17.07;;;;;;;-141.84;100.00;119224.81;5010103;28;20226;-66
2023/12/14 00:13:56;;;;;;;22.03;15.37;;;;;;;-141.84;100.00;119224.81;5010247;28;20770;-65
2023/12/14 00:16:25;;;;;;;61.60;17.50;;;;;;;-141.84;100.00;119224.81;5010183;28;20231;-66
2023/12/14 00:18:53;;;;;;;21.03;15.37;;;;;;;-141.84;100.00;119224.81;5010238;28;20309;-65
2023/12/14 00:21:23;;;;;;;24.83;15.73;;;;;;;-141.84;100.00;119224.81;5010889;28;20198;-66
2023/12/14 00:23:52;;;;;;;18.63;12.83;;;;;;;-141.84;100.00;119224.81;5010823;28;20293;-66
2023/12/14 00:26:20;;;;;;;20.10;14.70;;;;;;;-141.84;100.00;119224.81;5009846;28;20234;-65
2023/12/14 00:28:49;;;;;;;19.43;14.00;;;;;;;-141.84;100.00;119224.81;5010218;28;20306;-66
2023/12/14 00:31:17;;;;;;;21.43;14.77;;;;;;;-141.84;100.00;119224.81;5010106;28;20226;-66
2023/12/14 00:33:46;;;;;;;25.73;15.73;;;;;;;-141.84;100.00;119224.81;5010063;28;20239;-65
2023/12/14 00:36:19;;;;;;;20.97;14.73;;;;;;;-141.84;100.00;119224.81;5010401;28;20755;-66
2023/12/14 00:38:49;;;;;;;20.70;14.30;;;;;;;-141.84;100.00;119224.81;5010105;28;20230;-65
2023/12/14 00:41:17;;;;;;;22.53;14.67;;;;;;;-141.84;100.00;119224.81;5010005;28;20227;-65
2023/12/14 00:43:46;;;;;;;20.10;13.77;;;;;;;-141.84;100.00;119224.81;5009925;28;20234;-65
2023/12/14 00:46:14;;;;;;;20.40;13.97;;;;;;;-141.84;100.00;119224.81;5009781;28;20573;-65
2023/12/14 00:48:43;;;;;;;24.70;15.00;;;;;;;-141.84;100.00;119224.81;5010319;28;20323;-65
2023/12/14 00:51:12;;;;;;;21.80;15.13;;;;;;;-141.84;100.00;119224.81;5010740;28;20202;-65
2023/12/14 00:53:40;;;;;;;20.60;15.17;;;;;;;-141.84;100.00;119224.81;5007155;28;20246;-66
2023/12/14 00:56:11;;;;;;;17.93;12.90;;;;;;;-141.84;100.00;119224.81;5009710;28;20318;-65
2023/12/14 00:58:39;;;;;;;21.47;13.73;;;;;;;-141.84;100.00;119224.81;5009479;28;20223;-65
2023/12/14 01:01:08;;;;;;;18.87;13.07;;;;;;;-141.84;100.00;119224.81;5009204;28;20230;-65
2023/12/14 01:03:37;;;;;;;19.70;13.67;;;;;;;-141.84;100.00;119224.81;5010134;28;20657;-66
2023/12/14 01:06:06;;;;;;;19.33;12.90;;;;;;;-141.84;100.00;119222.75;5010322;28;20206;-66
2023/12/14 01:08:35;;;;;;;20.87;13.33;;;;;;;-141.84;100.00;119224.81;5012549;28;20253;-65
2023/12/14 01:11:03;;;;;;;19.27;12.80;;;;;;;-141.84;100.00;119224.81;5013268;28;20973;-66
2023/12/14 01:13:33;;;;;;;18.70;13.07;;;;;;;-141.84;100.00;119224.81;5013394;28;20231;-64
2023/12/14 01:16:02;;;;;;;19.83;13.90;;;;;;;-141.84;100.00;119224.81;5013309;28;20236;-67
2023/12/14 01:18:31;;;;;;;18.53;12.90;;;;;;;-141.84;100.00;119224.81;5013359;28;20273;-65
2023/12/14 01:21:00;;;;;;;20.00;12.93;;;;;;;-141.84;100.00;119224.81;5014002;28;20205;-65
2023/12/14 01:23:28;;;;;;;18.57;13.37;;;;;;;-141.84;100.00;119224.81;5013185;28;20285;-65
2023/12/14 01:25:57;;;;;;;27.10;13.73;;;;;;;-141.84;100.00;119224.81;5013166;28;20234;-65
2023/12/14 01:28:26;;;;;;;21.97;13.80;;;;;;;-141.84;100.00;119224.81;5013016;28;20226;-65
2023/12/14 01:30:56;;;;;;;17.50;13.00;;;;;;;-141.84;100.00;119224.81;5012891;28;20782;-65
2023/12/14 01:33:25;;;;;;;19.93;13.53;;;;;;;-141.84;100.00;119224.81;5012985;28;20238;-65
2023/12/14 01:35:54;;;;;;;20.17;13.00;;;;;;;-141.84;100.00;119224.81;5013738;28;20565;-65
2023/12/14 01:38:23;;;;;;;24.70;14.73;;;;;;;-141.84;100.00;119224.81;5011367;28;20245;-65
2023/12/14 01:40:51;;;;;;;18.20;13.10;;;;;;;-141.84;100.00;119224.81;5012761;28;20309;-65
2023/12/14 01:43:20;;;;;;;24.67;13.93;;;;;;;-141.84;100.00;119224.81;5012572;28;20234;-66
2023/12/14 01:45:48;;;;;;;20.23;13.47;;;;;;;-141.84;100.00;119224.81;5013158;28;20249;-65
2023/12/14 01:48:18;;;;;;;20.40;13.23;;;;;;;-141.84;100.00;119224.81;5013162;28;20412;-66
2023/12/14 01:50:46;;;;;;;23.13;12.83;;;;;;;-141.84;100.00;119224.81;5012729;28;20234;-65
2023/12/14 01:53:15;;;;;;;20.07;12.67;;;;;;;-141.84;100.00;119224.81;5012695;28;20644;-65
2023/12/14 01:55:43;;;;;;;20.93;13.77;;;;;;;-141.84;100.00;119224.81;5012567;28;20309;-65
2023/12/14 01:58:12;;;;;;;20.70;13.37;;;;;;;-141.84;100.00;119224.81;5012863;28;20226;-65
2023/12/14 02:00:47;;;;;;;20.60;13.20;;;;;;;-141.84;100.00;119224.81;5012643;28;20234;-66
2023/12/14 02:03:17;;;;;;;24.03;13.10;;;;;;;-141.84;100.00;119224.81;5013223;28;20194;-65
2023/12/14 02:05:45;;;;;;;23.43;13.67;;;;;;;-141.84;100.00;119224.81;5012556;28;20277;-65
2023/12/14 02:08:14;;;;;;;22.13;13.30;;;;;;;-141.84;100.00;119224.81;5012202;28;20284;-65
2023/12/14 02:10:43;;;;;;;21.17;13.43;;;;;;;-141.84;100.00;119224.81;5012348;28;20223;-65
2023/12/14 02:13:11;;;;;;;19.37;12.60;;;;;;;-141.84;100.00;119224.81;5012218;28;20309;-65
2023/12/14 02:15:40;;;;;;;22.10;12.90;;;;;;;-141.84;100.00;119224.81;5012735;28;20286;-65
2023/12/14 02:18:09;;;;;;;21.77;13.13;;;;;;;-141.84;100.00;119224.81;5012712;28;20230;-64
2023/12/14 02:20:38;;;;;;;19.33;12.63;;;;;;;-141.84;100.00;119224.81;5012283;28;20226;-66
2023/12/14 02:23:08;;;;;;;22.27;12.50;;;;;;;-141.84;100.00;119224.81;5012346;28;20227;-64
2023/12/14 02:25:37;;;;;;;20.87;12.80;;;;;;;-141.84;100.00;119224.81;5012403;28;20227;-65
2023/12/14 02:28:05;;;;;;;25.50;12.97;;;;;;;-141.84;100.00;119224.81;5011655;28;20312;-65
2023/12/14 02:30:34;;;;;;;19.80;12.50;;;;;;;-141.84;100.00;119224.81;5012016;28;20297;-68
2023/12/14 02:33:02;;;;;;;22.47;12.80;;;;;;;-141.84;100.00;119224.81;5012184;28;20605;-68
2023/12/14 02:35:31;;;;;;;26.93;13.90;;;;;;;-141.84;100.00;119224.81;5012023;28;20762;-68
2023/12/14 02:38:00;;;;;;;22.87;13.20;;;;;;;-141.84;100.00;119224.81;5007527;28;20902;-68
2023/12/14 02:40:30;;;;;;;20.50;12.43;;;;;;;-141.84;100.00;119224.81;5002015;28;20246;-68
2023/12/14 02:42:58;;;;;;;26.60;13.73;;;;;;;-141.84;100.00;119224.81;4997518;28;20285;-68
2023/12/14 02:45:27;;;;;;;23.30;12.47;;;;;;;-141.84;100.00;119224.81;5012264;28;20774;-68
2023/12/14 02:47:55;;;;;;;24.27;13.40;;;;;;;-141.84;100.00;119224.81;5012442;28;20796;-68
2023/12/14 02:50:24;;;;;;;30.00;13.17;;;;;;;-141.84;100.00;119224.81;5012189;28;20230;-68
2023/12/14 02:52:52;;;;;;;24.80;12.47;;;;;;;-141.84;100.00;119224.81;5012387;28;20280;-67
2023/12/14 02:55:21;;;;;;;20.37;12.60;;;;;;;-141.84;100.00;119224.81;5012414;28;20226;-68
2023/12/14 02:57:51;;;;;;;18.43;11.63;;;;;;;-141.84;100.00;119224.81;5012337;28;20233;-68
2023/12/14 03:00:19;;;;;;;22.17;11.87;;;;;;;-141.84;100.00;119224.81;5013360;28;20234;-68
2023/12/14 03:02:48;;;;;;;20.83;11.77;;;;;;;-141.84;100.00;119224.81;5011559;28;20215;-68
2023/12/14 03:05:16;;;;;;;24.10;12.53;;;;;;;-141.84;100.00;119224.81;4993090;28;20749;-69
2023/12/14 03:07:45;;;;;;;17.40;11.63;;;;;;;-141.84;100.00;119224.81;5001043;28;20223;-68
2023/12/14 03:10:14;;;;;;;18.10;10.60;;;;;;;-141.84;100.00;119224.81;5012971;28;20227;-68
2023/12/14 03:12:42;;;;;;;15.93;10.67;;;;;;;-141.84;100.00;119224.81;5012630;28;20203;-68
2023/12/14 03:15:12;;;;;;;17.13;10.47;;;;;;;-141.84;100.00;119224.81;5012710;28;20313;-68
2023/12/14 03:17:41;;;;;;;14.43;9.47;;;;;;;-141.84;100.00;119224.81;5011255;28;20726;-67
2023/12/14 03:20:10;;;;;;;19.03;10.40;;;;;;;-141.84;100.00;119224.81;5011191;28;20245;-68
2023/12/14 03:22:39;;;;;;;16.47;9.80;;;;;;;-141.84;100.00;119224.81;5011920;28;20230;-67
2023/12/14 03:25:10;;;;;;;14.63;9.73;;;;;;;-141.84;100.00;119224.81;5011534;28;20773;-68
2023/12/14 03:27:38;;;;;;;14.87;10.03;;;;;;;-141.84;100.00;119224.81;5010832;28;20313;-68
2023/12/14 03:30:09;;;;;;;14.77;10.37;;;;;;;-141.84;100.00;119224.81;5010979;28;20238;-68
2023/12/14 03:32:39;;;;;;;15.43;9.80;;;;;;;-141.84;100.00;119224.81;5010721;28;20295;-68
2023/12/14 03:35:09;;;;;;;15.93;9.30;;;;;;;-141.84;100.00;119224.81;5010842;28;20240;-69
2023/12/14 03:37:37;;;;;;;14.67;9.80;;;;;;;-141.84;100.00;119224.81;5011375;28;20226;-67
2023/12/14 03:40:07;;;;;;;14.90;10.93;;;;;;;-141.84;100.00;119224.81;5010670;28;20226;-68
2023/12/14 03:42:36;;;;;;;17.70;10.53;;;;;;;-141.84;100.00;119222.75;5010983;28;20294;-68
2023/12/14 03:45:06;;;;;;;17.20;10.97;;;;;;;-141.84;100.00;119222.75;5011254;28;20203;-68
2023/12/14 03:47:34;;;;;;;15.43;10.93;;;;;;;-141.84;100.00;118956.03;5010525;28;20238;-68
2023/12/14 03:50:05;;;;;;;15.93;10.43;;;;;;;-141.84;100.00;118689.38;5010558;28;20762;-68
2023/12/14 03:52:33;;;;;;;17.03;10.77;;;;;;;-141.84;100.00;119224.81;5010734;28;20245;-68
2023/12/14 03:55:03;;;;;;;15.20;11.57;;;;;;;-141.84;100.00;119224.81;5010611;28;20218;-67
2023/12/14 03:57:31;;;;;;;19.27;12.17;;;;;;;-141.84;100.00;119224.81;5010547;28;20206;-68
2023/12/14 04:00:00;;;;;;;18.97;12.87;;;;;;;-141.84;100.00;119224.81;5010524;28;20773;-68
2023/12/14 04:02:28;;;;;;;21.80;13.03;;;;;;;-141.84;100.00;117889.44;5010381;28;20222;-67
2023/12/14 04:04:57;;;;;;;18.27;12.37;;;;;;;-141.84;100.00;117889.44;5010429;28;20373;-68
2023/12/14 04:07:27;;;;;;;16.40;11.73;;;;;;;-141.84;100.00;119224.81;5010195;28;20239;-69
2023/12/14 04:09:55;;;;;;;18.57;12.33;;;;;;;-141.84;100.00;118956.03;5010401;28;20232;-68
2023/12/14 04:12:24;;;;;;;17.83;12.23;;;;;;;-141.84;100.00;117089.69;5010600;28;20205;-67
2023/12/14 04:14:52;;;;;;;17.83;12.50;;;;;;;-141.84;100.00;115757.06;5010616;28;20289;-68
2023/12/14 04:17:21;;;;;;;18.43;12.20;;;;;;;-141.84;100.00;117889.44;5010101;28;20229;-68
2023/12/14 04:19:49;;;;;;;17.13;11.27;;;;;;;-141.84;100.00;118156.06;5009790;28;20237;-68
2023/12/14 04:22:17;;;;;;;16.93;11.33;;;;;;;-141.84;100.00;117889.44;5010547;28;20261;-68
2023/12/14 04:24:47;;;;;;;18.27;11.17;;;;;;;-141.84;100.00;118956.03;5010287;28;20223;-69
2023/12/14 04:27:16;;;;;;;17.73;11.33;;;;;;;-141.84;100.00;119224.81;5010985;28;20302;-68
2023/12/14 04:29:45;;;;;;;18.47;12.20;;;;;;;-141.84;100.00;119224.81;5008486;28;20221;-68
2023/12/14 04:32:13;;;;;;;21.73;12.70;;;;;;;-141.84;100.00;119224.81;5009956;28;20717;-69
2023/12/14 04:34:42;;;;;;;19.07;12.47;;;;;;;-141.84;100.00;119224.81;5009752;28;20239;-68
2023/12/14 04:37:10;;;;;;;18.27;12.00;;;;;;;-141.84;100.00;119224.81;5010047;28;20289;-67
2023/12/14 04:39:39;;;;;;;15.60;11.50;;;;;;;-141.84;100.00;119224.81;5010082;28;20198;-69
2023/12/14 04:42:09;;;;;;;15.27;10.67;;;;;;;-141.84;100.00;119224.81;5010831;28;20690;-68
2023/12/14 04:44:37;;;;;;;13.17;9.80;;;;;;;-141.84;100.00;119224.81;5013701;28;20313;-68
2023/12/14 04:47:06;;;;;;;15.47;9.70;;;;;;;-141.84;100.00;119224.81;5014103;28;20234;-67
2023/12/14 04:49:34;;;;;;;13.97;10.63;;;;;;;-141.84;100.00;119224.81;5014084;28;20230;-68
2023/12/14 04:52:04;;;;;;;13.03;9.50;;;;;;;-141.84;100.00;119224.81;5013840;28;20238;-68
2023/12/14 04:54:35;;;;;;;12.40;9.00;;;;;;;-141.84;100.00;119224.81;5013548;28;20662;-67
2023/12/14 04:57:04;;;;;;;15.60;10.30;;;;;;;-141.84;100.00;119224.81;5014114;28;20673;-67
2023/12/14 04:59:34;;;;;;;11.80;8.97;;;;;;;-141.84;100.00;119224.81;5013231;28;20226;-68
2023/12/14 05:02:03;;;;;;;12.03;9.00;;;;;;;-141.84;100.00;119224.81;5013729;28;20318;-68
2023/12/14 05:04:31;;;;;;;13.27;9.23;;;;;;;-141.84;100.00;119224.81;5013829;28;20242;-68
2023/12/14 05:07:00;;;;;;;12.23;8.17;;;;;;;-141.84;100.00;119224.81;5013593;28;20288;-68
2023/12/14 05:09:28;;;;;;;10.83;7.70;;;;;;;-141.84;100.00;119224.81;5013720;28;20309;-68
2023/12/14 05:11:57;;;;;;;11.33;7.93;;;;;;;-141.84;100.00;119224.81;5014070;28;20296;-68
2023/12/14 05:14:28;;;;;;;10.97;7.97;;;;;;;-141.84;100.00;119224.81;5013365;28;20265;-68
2023/12/14 05:16:58;;;;;;;10.37;7.50;;;;;;;-141.84;100.00;119224.81;5013486;28;20261;-68
2023/12/14 05:19:27;;;;;;;9.93;6.83;;;;;;;-141.84;100.00;119224.81;5013377;28;20237;-68
2023/12/14 05:21:55;;;;;;;9.83;6.90;;;;;;;-141.84;100.00;119222.75;5013236;28;20321;-69
2023/12/14 05:24:24;;;;;;;8.80;6.57;;;;;;;-141.84;100.00;118689.38;5013168;28;20209;-68
2023/12/14 05:26:52;;;;;;;8.33;5.67;;;;;;;-141.84;100.00;118956.03;5012582;28;20301;-67
2023/12/14 05:29:23;;;;;;;9.40;6.90;;;;;;;-141.84;100.00;119224.81;5012009;28;20646;-68
2023/12/14 05:31:51;;;;;;;10.50;6.83;;;;;;;-141.84;100.00;119222.75;5012913;28;20645;-67
2023/12/14 05:34:21;;;;;;;10.63;7.07;;;;;;;-141.84;100.00;119224.81;5012801;28;20692;-68
2023/12/14 05:36:50;;;;;;;11.27;7.83;;;;;;;-141.84;100.00;118956.03;5012761;28;20318;-68
2023/12/14 05:39:18;;;;;;;11.00;8.67;;;;;;;-141.84;100.00;119224.81;5012119;28;20231;-68
2023/12/14 05:41:47;;;;;;;10.07;7.93;;;;;;;-141.84;100.00;119224.81;5012511;28;20297;-67
2023/12/14 05:44:15;;;;;;;10.23;7.30;;;;;;;-141.84;100.00;119224.81;5012619;28;20240;-67
2023/12/14 05:46:44;;;;;;;9.40;7.33;;;;;;;-141.84;100.00;119224.81;5012992;28;20230;-71
2023/12/14 05:49:12;;;;;;;10.13;7.03;;;;;;;-141.84;100.00;118956.03;5013132;28;20296;-68
2023/12/14 05:51:42;;;;;;;10.67;7.30;;;;;;;-141.84;100.00;118689.38;5012967;28;20207;-69
2023/12/14 05:54:11;;;;;;;11.43;7.63;;;;;;;-141.84;100.00;118956.03;5013234;28;20209;-68
2023/12/14 05:56:39;;;;;;;9.20;7.20;;;;;;;-141.84;100.00;118956.03;5012620;28;20226;-67
2023/12/14 05:59:08;;;;;;;9.20;6.83;;;;;;;-141.84;100.00;118956.03;5012373;28;20753;-67
2023/12/14 06:01:36;;;;;;;10.73;7.20;;;;;;;-141.84;100.00;118156.06;5012549;28;20226;-67
2023/12/14 06:04:05;;;;;;;7.57;5.67;;;;;;;-141.84;100.00;117622.84;5012651;28;20230;-68
2023/12/14 06:06:33;;;;;;;6.90;5.57;;;;;;;-141.84;100.00;115224.16;5012704;28;20298;-67
2023/12/14 06:09:03;;;;;;;7.40;5.90;;;;;;;-141.84;100.00;111229.50;5012766;28;20258;-66
2023/12/14 06:11:32;;;;;;;8.20;6.43;;;;;;;-141.84;100.00;110164.91;5012270;28;20280;-67
2023/12/14 06:14:00;;;;;;;9.13;6.20;;;;;;;-141.84;100.00;111495.69;5012203;28;20313;-67
2023/12/14 06:16:29;;;;;;;8.63;6.60;;;;;;;-141.84;100.00;111229.50;5012319;28;20229;-67
2023/12/14 06:18:57;;;;;;;9.00;6.93;;;;;;;-141.84;100.00;110431.03;5011927;28;20273;-68
2023/12/14 06:21:28;;;;;;;9.13;6.77;;;;;;;-141.84;100.00;111761.88;5012462;28;20206;-66
2023/12/14 06:23:57;;;;;;;8.77;6.93;;;;;;;-141.84;100.00;113359.50;5012795;28;20656;-67
2023/12/14 06:26:27;;;;;;;8.93;7.07;;;;;;;-141.84;100.00;112294.34;5012167;28;20230;-67
2023/12/14 06:28:56;;;;;;;10.10;7.40;;;;;;;-141.84;100.00;111761.88;5010447;28;20246;-66
2023/12/14 06:31:24;;;;;;;8.73;7.10;;;;;;;-141.84;100.00;110963.31;5011315;28;20222;-66
2023/12/14 06:33:53;;;;;;;10.13;8.13;;;;;;;-141.84;100.00;111229.50;5011917;28;20314;-66
2023/12/14 06:36:29;;;;;;;11.60;8.70;;;;;;;-141.84;100.00;114424.91;5010998;28;20659;-66
2023/12/14 06:38:58;;;;;;;11.40;8.87;;;;;;;-141.84;100.00;116023.56;5012909;28;20187;-66
2023/12/14 06:41:29;;;;;;;12.90;9.53;;;;;;;-141.84;100.00;115757.06;5011755;28;20321;-66
2023/12/14 06:43:57;;;;;;;12.33;8.87;;;;;;;-141.84;100.00;116823.13;5012081;28;20261;-65
2023/12/14 06:46:26;;;;;;;15.47;9.73;;;;;;;-141.84;100.00;117889.44;5011811;28;20230;-66
2023/12/14 06:48:55;;;;;;;13.77;10.07;;;;;;;-141.84;100.00;118956.03;5011958;28;20668;-66
2023/12/14 06:51:24;;;;;;;13.50;9.73;;;;;;;-141.84;100.00;118156.06;4998025;28;20222;-66
2023/12/14 06:53:52;;;;;;;12.90;9.30;;;;;;;-141.84;100.00;118956.03;5005118;28;20237;-68
2023/12/14 06:56:21;;;;;;;13.70;9.80;;;;;;;-141.84;100.00;118689.38;5008586;28;20246;-69
2023/12/14 06:58:51;;;;;;;15.47;10.07;;;;;;;-141.84;100.00;117622.84;5004863;28;20234;-69
2023/12/14 07:01:19;;;;;;;14.07;9.80;;;;;;;-141.84;100.00;116556.59;5000808;28;20238;-68
2023/12/14 07:03:48;;;;;;;15.30;10.23;;;;;;;-141.84;100.00;118156.06;5003287;28;20226;-68
2023/12/14 07:06:18;;;;;;;13.87;10.23;;;;;;;-141.84;100.00;118956.03;5011208;28;20881;-68
2023/12/14 07:08:47;;;;;;;14.13;10.23;;;;;;;-141.84;100.00;119224.81;4995748;28;20262;-68
2023/12/14 07:11:17;;;;;;;11.87;8.77;;;;;;;-141.84;100.00;119224.81;5003820;28;20654;-67
2023/12/14 07:13:46;;;;;;;12.90;9.03;;;;;;;-141.84;100.00;119224.81;5011102;28;20231;-68
2023/12/14 07:16:17;;;;;;;12.20;8.20;;;;;;;-141.84;100.00;119224.81;4999408;28;20223;-68
2023/12/14 07:18:46;;;;;;;10.23;7.60;;;;;;;-141.84;100.00;118956.03;5011120;28;20277;-68
2023/12/14 07:21:15;;;;;;;11.47;7.60;;;;;;;-141.84;100.00;119224.81;5011832;28;20199;-68
2023/12/14 07:23:44;;;;;;;10.13;7.33;;;;;;;-141.84;100.00;119224.81;5011054;28;20326;-68
2023/12/14 07:26:12;;;;;;;12.10;7.57;;;;;;;-141.84;100.00;118689.38;5010783;28;20239;-67
2023/12/14 07:28:41;;;;;;;13.70;8.50;;;;;;;-141.84;100.00;118689.38;5010569;28;20699;-68
2023/12/14 07:31:09;;;;;;;12.53;9.07;;;;;;;-141.84;100.00;118689.38;5007197;28;20314;-67
2023/12/14 07:33:39;;;;;;;11.70;8.43;;;;;;;-141.84;100.00;118156.06;4991804;28;20326;-68
2023/12/14 07:36:08;;;;;;;13.00;9.83;;;;;;;-141.84;100.00;118956.03;4993445;28;20223;-69
2023/12/14 07:38:37;;;;;;;14.17;10.00;;;;;;;-141.84;100.00;119222.75;4991477;28;20859;-68
2023/12/14 07:41:05;;;;;;;16.27;10.57;;;;;;;-141.84;100.00;119224.81;5000945;28;20223;-66
2023/12/14 07:43:34;;;;;;;17.03;10.70;;;;;;;-141.84;100.00;119224.81;5010505;28;20222;-66
2023/12/14 07:46:02;;;;;;;17.40;10.20;;;;;;;-141.84;100.00;119224.81;5010653;28;20762;-66
2023/12/14 07:48:31;;;;;;;18.40;10.90;;;;;;;-141.84;100.00;119224.81;5010514;28;20660;-66
2023/12/14 07:51:01;;;;;;;16.43;10.87;;;;;;;-141.84;100.00;119224.81;5006507;28;20674;-65
2023/12/14 07:53:29;;;;;;;15.80;10.67;;;;;;;-141.84;100.00;119222.75;4991015;28;20715;-65
2023/12/14 07:56:01;;;;;;;16.43;10.80;;;;;;;-141.84;100.00;119222.75;5001775;28;20575;-64
2023/12/14 07:58:30;;;;;;;15.10;10.43;;;;;;;-141.84;100.00;119224.81;5003506;28;20223;-66
2023/12/14 08:00:59;;;;;;;12.43;9.30;;;;;;;-141.84;100.00;119222.75;5006346;28;20602;-66
2023/12/14 08:03:27;;;;;;;13.13;9.87;;;;;;;-141.84;100.00;113892.16;5008941;28;20198;-65
2023/12/14 08:05:56;;;;;;;14.47;9.47;;;;;;;-141.84;100.00;114691.31;4996923;28;20195;-65
2023/12/14 08:08:26;;;;;;;11.83;8.83;;;;;;;-141.84;100.00;114691.31;5004795;28;20223;-66
2023/12/14 08:10:54;;;;;;;12.90;8.80;;;;;;;-141.84;100.00;114957.72;5007590;28;20233;-65
2023/12/14 08:13:23;;;;;;;13.87;9.90;;;;;;;-141.84;100.00;115757.06;5010321;28;20261;-65
2023/12/14 08:15:51;;;;;;;14.43;10.40;;;;;;;-141.84;100.00;116556.59;5010321;28;20226;-65
2023/12/14 08:18:20;;;;;;;12.90;9.77;;;;;;;-141.84;100.00;116556.59;5010617;28;20211;-65
2023/12/14 08:20:48;;;;;;;12.27;9.17;;;;;;;-141.84;100.00;110963.31;5010760;28;20293;-66
2023/12/14 08:23:17;;;;;;;13.17;8.93;;;;;;;-141.84;100.00;110697.16;5010061;28;20291;-66
2023/12/14 08:25:47;;;;;;;13.80;8.70;;;;;;;-141.84;100.00;109366.66;5010216;28;20238;-65
2023/12/14 08:28:15;;;;;;;11.50;8.57;;;;;;;-141.84;100.00;109100.59;5009809;28;20233;-65
2023/12/14 08:30:44;;;;;;;11.73;8.43;;;;;;;-141.84;100.00;106972.81;5008322;28;20304;-66
2023/12/14 08:33:12;;;;;;;12.33;9.00;;;;;;;-141.84;100.00;104048.94;5010486;28;20235;-66
2023/12/14 08:35:41;;;;;;;11.20;7.83;;;;;;;-141.84;100.00;100861.66;5010096;28;20257;-66
2023/12/14 08:38:10;;;;;;;10.73;8.10;;;;;;;-141.84;100.00;100330.69;4994581;28;20321;-66
2023/12/14 08:40:40;;;;;;;11.87;8.57;;;;;;;-141.84;100.00;101127.16;4990288;28;20250;-65
2023/12/14 08:43:10;;;;;;;12.63;9.33;;;;;;;-141.84;100.00;100596.16;4990398;28;20227;-65
2023/12/14 08:45:38;;;;;;;12.43;8.97;;;;;;;-141.84;100.00;99799.78;4990173;28;20552;-65
2023/12/14 08:48:07;;;;;;;13.23;9.60;;;;;;;-141.84;100.00;99268.97;4990926;28;20648;-66
2023/12/14 08:50:36;;;;;;;13.63;9.67;;;;;;;-141.84;100.00;100596.16;4990422;28;20228;-65
2023/12/14 08:53:05;;;;;;;13.80;10.07;;;;;;;-141.84;100.00;104314.66;4990511;28;20321;-65
2023/12/14 08:55:34;;;;;;;14.53;10.57;;;;;;;-141.84;100.00;105111.94;4998049;28;20629;-66
2023/12/14 08:58:02;;;;;;;13.43;10.47;;;;;;;-141.84;100.00;105643.53;5010937;28;20320;-65
2023/12/14 09:00:32;;;;;;;15.33;11.13;;;;;;;-141.84;100.00;106972.81;5009819;28;20297;-66
2023/12/14 09:03:01;;;;;;;15.40;10.70;;;;;;;-141.84;100.00;109366.66;5010683;28;20637;-66
2023/12/14 09:05:29;;;;;;;15.03;11.10;;;;;;;-141.84;100.00;110963.31;5009864;28;20230;-65
2023/12/14 09:07:59;;;;;;;14.33;10.37;;;;;;;-141.84;100.00;105643.53;5009860;28;20241;-66
2023/12/14 09:10:27;;;;;;;14.80;10.53;;;;;;;-141.84;100.00;104580.41;5009549;28;20234;-66
2023/12/14 09:12:56;;;;;;;13.73;9.87;;;;;;;-141.84;100.00;104580.41;5010134;28;20752;-65
2023/12/14 09:15:24;;;;;;;13.90;10.37;;;;;;;-141.84;100.00;107238.72;5009902;28;20231;-66
2023/12/14 09:17:54;;;;;;;13.87;9.60;;;;;;;-141.84;100.00;106441.06;5010155;28;20245;-65
2023/12/14 09:20:23;;;;;;;13.10;9.10;;;;;;;-141.84;100.00;107238.72;5009903;28;20357;-66
2023/12/14 09:22:53;;;;;;;11.63;9.00;;;;;;;-141.84;100.00;106972.81;5010127;28;20689;-66
2023/12/14 09:25:21;;;;;;;11.20;8.70;;;;;;;-141.84;100.00;105377.72;5007232;28;20678;-65
2023/12/14 09:27:50;;;;;;;11.00;8.17;;;;;;;-141.84;100.00;104846.16;4990183;28;20281;-65
2023/12/14 09:30:18;;;;;;;9.23;7.03;;;;;;;-141.84;100.00;96881.06;5004311;28;20290;-64
2023/12/14 09:32:48;;;;;;;9.43;7.47;;;;;;;-141.84;100.00;100330.69;5012956;28;20609;-66
2023/12/14 09:35:18;;;;;;;7.63;6.57;;;;;;;-141.84;100.00;101923.81;5013328;28;20231;-66
2023/12/14 09:37:47;;;;;;;10.73;6.60;;;;;;;-141.84;100.00;90785.09;5000669;28;20339;-67
2023/12/14 09:40:16;;;;;;;7.97;6.07;;;;;;;-141.84;100.00;88666.94;4993647;28;20219;-65
2023/12/14 09:42:45;;;;;;;7.27;6.23;;;;;;;-141.84;100.00;96085.44;4993598;28;20234;-66
2023/12/14 09:45:14;;;;;;;9.10;6.93;;;;;;;-141.84;100.00;99799.78;4994080;28;20211;-66
2023/12/14 09:47:43;;;;;;;10.27;7.63;;;;;;;-141.84;100.00;94229.53;4993622;28;20306;-67
2023/12/14 09:50:14;;;;;;;13.30;8.77;;;;;;;-141.84;100.00;93169.38;4993558;28;20235;-66
2023/12/14 09:52:45;;;;;;;12.23;8.87;;;;;;;-141.84;100.00;98472.84;4993520;28;20235;-66
2023/12/14 09:55:14;;;;;;;12.53;8.73;;;;;;;-141.84;100.00;104048.94;4997925;28;20234;-66
2023/12/14 09:57:42;;;;;;;12.07;8.30;;;;;;;-141.84;100.00;105909.34;5013018;28;20289;-66
2023/12/14 10:00:13;;;;;;;10.70;8.50;;;;;;;-141.84;100.00;109366.66;5013224;28;20245;-66
2023/12/14 10:02:42;;;;;;;9.57;7.27;;;;;;;-141.84;100.00;109898.81;5012760;28;20222;-66
2023/12/14 10:05:12;;;;;;;8.27;6.60;;;;;;;-141.84;100.00;108568.56;5012688;28;20227;-67
2023/12/14 10:07:44;;;;;;;7.70;6.07;;;;;;;-141.84;100.00;101923.81;5012645;28;20233;-66
2023/12/14 10:10:15;;;;;;;7.37;6.07;;;;;;;-141.84;100.00;103783.25;5012414;28;20352;-66
2023/12/14 10:12:53;;;;;;;8.13;5.97;;;;;;;-141.84;100.00;106972.81;5012457;28;20944;-66
2023/12/14 10:15:23;;;;;;;7.00;5.67;;;;;;;-141.84;100.00;104846.16;5012855;28;20299;-65
2023/12/14 10:17:54;;;;;;;7.53;5.73;;;;;;;-141.84;100.00;95024.81;5012780;28;20690;-66
2023/12/14 10:20:26;;;;;;;7.83;6.17;;;;;;;-141.84;100.00;93169.38;5012594;28;20231;-67
2023/12/14 10:22:56;;;;;;;7.63;6.47;;;;;;;-141.84;100.00;86549.84;4999675;28;20234;-66
2023/12/14 10:25:25;;;;;;;8.17;6.23;;;;;;;-141.84;100.00;87343.63;4992995;28;20242;-66
2023/12/14 10:27:54;;;;;;;8.83;6.80;;;;;;;-141.84;100.00;93699.44;4992793;28;20230;-67
2023/12/14 10:30:22;;;;;;;9.23;6.60;;;;;;;-141.84;100.00;92374.47;5003613;28;20752;-65
2023/12/14 10:32:51;;;;;;;7.40;6.37;;;;;;;-141.84;100.00;91579.72;5012315;28;20721;-67
2023/12/14 10:35:21;;;;;;;7.27;6.50;;;;;;;-141.84;100.00;85756.25;5012334;28;20254;-66
2023/12/14 10:37:52;;;;;;;7.53;5.93;;;;;;;-141.84;100.00;84433.91;4999094;28;20238;-66
2023/12/14 10:40:24;;;;;;;8.07;5.90;;;;;;;-141.84;100.00;84698.34;4991510;28;20258;-66
2023/12/14 10:42:53;;;;;;;7.13;5.73;;;;;;;-141.84;100.00;79412.97;4992526;28;20281;-66
2023/12/14 10:45:26;;;;;;;7.17;5.30;;;;;;;-141.84;100.00;77300.78;4992574;28;20246;-66
2023/12/14 10:47:56;;;;;;;7.70;5.57;;;;;;;-141.84;99.95;74134.56;4992828;28;20222;-65
2023/12/14 10:50:25;;;;;;;7.60;5.80;;;;;;;-141.84;100.00;75981.22;4992355;28;20227;-66
2023/12/14 10:52:54;;;;;;;6.37;5.43;;;;;;;-141.84;99.56;73607.09;4992229;28;20246;-65
2023/12/14 10:55:30;;;;;;;7.50;5.27;;;;;;;-141.84;100.00;79148.88;4998320;28;20648;-66
2023/12/14 10:57:59;;;;;;;6.93;5.77;;;;;;;-141.84;100.00;86814.44;5011917;28;20284;-66
2023/12/14 11:00:27;;;;;;;6.87;5.93;;;;;;;-141.84;100.00;94494.59;5009450;28;20905;-65